createdAt,value
2019-03-16T00:02:18.475Z,3.93
2019-03-16T00:04:46.871Z,1.60
2019-03-16T00:07:15.275Z,5.50
2019-03-16T00:09:43.675Z,2.90
2019-03-16T00:12:12.093Z,5.13
2019-03-16T00:14:40.487Z,5.67
2019-03-16T00:17:08.885Z,2.47
2019-03-16T00:19:37.292Z,2.77
2019-03-16T00:22:06.043Z,2.17
2019-03-16T00:24:34.439Z,3.00
2019-03-16T00:27:02.825Z,2.57
2019-03-16T00:29:31.240Z,1.43
2019-03-16T00:32:12.625Z,1.50
2019-03-16T00:34:29.779Z,1.27
2019-03-16T00:36:58.435Z,0.83
2019-03-16T00:39:26.856Z,0.90
2019-03-16T00:41:55.248Z,5.77
2019-03-16T00:44:23.675Z,1.63
2019-03-16T00:46:52.054Z,1.30
2019-03-16T00:49:20.467Z,0.80
2019-03-16T00:51:48.850Z,2.30
2019-03-16T00:54:17.257Z,2.80
2019-03-16T00:56:45.641Z,0.90
2019-03-16T00:59:14.047Z,1.37
2019-03-16T01:01:42.453Z,1.73
2019-03-16T01:04:10.869Z,1.20
2019-03-16T01:06:39.272Z,0.80
2019-03-16T01:09:08.247Z,3.30
2019-03-16T01:11:36.637Z,1.80
2019-03-16T01:14:05.043Z,2.40
2019-03-16T01:16:33.427Z,1.63
2019-03-16T01:19:01.826Z,4.33
2019-03-16T01:21:30.234Z,0.97
2019-03-16T01:23:58.645Z,2.90
2019-03-16T01:26:27.049Z,0.73
2019-03-16T01:28:55.469Z,1.07
2019-03-16T01:31:23.849Z,1.00
2019-03-16T01:33:52.281Z,1.03
2019-03-16T01:36:20.664Z,1.70
2019-03-16T01:38:49.084Z,0.90
2019-03-16T01:41:17.479Z,1.20
2019-03-16T01:43:45.893Z,0.70
2019-03-16T01:46:14.301Z,0.87
2019-03-16T01:48:42.710Z,0.50
2019-03-16T01:51:11.098Z,0.87
2019-03-16T01:53:39.529Z,1.47
2019-03-16T01:56:07.919Z,0.83
2019-03-16T01:58:36.399Z,0.90
2019-03-16T02:01:05.170Z,1.50
2019-03-16T02:03:33.575Z,1.07
2019-03-16T02:06:01.977Z,0.73
2019-03-16T02:08:30.375Z,1.03
2019-03-16T02:10:58.777Z,0.50
2019-03-16T02:13:27.176Z,1.40
2019-03-16T02:15:55.574Z,0.80
2019-03-16T02:18:23.967Z,3.13
2019-03-16T02:20:52.737Z,1.27
2019-03-16T02:23:21.129Z,1.63
2019-03-16T02:25:49.548Z,0.60
2019-03-16T02:28:17.944Z,0.57
2019-03-16T02:30:46.345Z,0.70
2019-03-16T02:33:14.730Z,0.60
2019-03-16T02:35:43.145Z,0.93
2019-03-16T02:38:11.533Z,0.57
2019-03-16T02:40:39.961Z,0.70
2019-03-16T02:43:08.356Z,1.70
2019-03-16T02:45:36.774Z,0.90
2019-03-16T02:48:05.206Z,1.93
2019-03-16T02:50:33.691Z,1.07
2019-03-16T02:53:02.093Z,1.03
2019-03-16T02:55:30.499Z,0.40
2019-03-16T02:57:58.900Z,1.10
2019-03-16T03:00:27.333Z,0.93
2019-03-16T03:02:55.771Z,1.40
2019-03-16T03:05:24.194Z,2.40
2019-03-16T03:07:52.668Z,2.00
2019-03-16T03:10:21.066Z,2.20
2019-03-16T03:12:49.457Z,1.27
2019-03-16T03:15:18.698Z,0.77
2019-03-16T03:17:47.082Z,1.17
2019-03-16T03:20:15.492Z,0.50
2019-03-16T03:22:43.916Z,0.50
2019-03-16T03:25:12.341Z,0.60
2019-03-16T03:27:41.070Z,1.17
2019-03-16T03:30:12.023Z,0.60
2019-03-16T03:32:40.482Z,0.97
2019-03-16T03:35:09.751Z,0.50
2019-03-16T03:37:38.118Z,0.87
2019-03-16T03:40:08.678Z,0.90
2019-03-16T03:42:37.073Z,2.20
2019-03-16T03:45:08.184Z,0.60
2019-03-16T03:47:36.585Z,0.63
2019-03-16T03:50:07.890Z,0.63
2019-03-16T03:52:36.301Z,0.97
2019-03-16T03:55:07.463Z,0.80
2019-03-16T03:57:35.924Z,1.77
2019-03-16T04:00:07.244Z,0.70
2019-03-16T04:02:35.700Z,1.17
2019-03-16T04:05:05.248Z,0.63
2019-03-16T04:07:33.645Z,1.17
2019-03-16T04:10:02.056Z,0.90
2019-03-16T04:12:30.465Z,1.50
2019-03-16T04:14:58.872Z,0.60
2019-03-16T04:17:27.258Z,0.63
2019-03-16T04:19:55.686Z,0.60
2019-03-16T04:22:24.094Z,0.93
2019-03-16T04:24:52.482Z,0.77
2019-03-16T04:27:20.951Z,0.90
2019-03-16T04:29:49.365Z,0.50
2019-03-16T04:32:17.821Z,1.70
2019-03-16T04:34:46.295Z,1.00
2019-03-16T04:37:14.755Z,1.33
2019-03-16T04:39:43.248Z,4.83
2019-03-16T04:42:11.705Z,2.33
2019-03-16T04:44:40.178Z,0.77
2019-03-16T04:47:08.621Z,0.80
2019-03-16T04:49:37.084Z,1.53
2019-03-16T04:52:05.539Z,0.57
2019-03-16T04:54:34.005Z,0.70
2019-03-16T04:57:02.469Z,1.00
2019-03-16T04:59:30.910Z,1.20
2019-03-16T05:01:59.353Z,1.73
2019-03-16T05:04:27.814Z,1.80
2019-03-16T05:06:56.390Z,1.50
2019-03-16T05:09:24.807Z,0.90
2019-03-16T05:11:53.286Z,0.97
2019-03-16T05:14:21.759Z,1.03
2019-03-16T05:16:50.160Z,0.50
2019-03-16T05:19:18.561Z,0.60
2019-03-16T05:21:46.983Z,0.80
2019-03-16T05:24:15.386Z,0.70
2019-03-16T05:26:43.782Z,0.70
2019-03-16T05:29:12.176Z,1.07
2019-03-16T05:31:40.582Z,0.60
2019-03-16T05:34:08.981Z,1.10
2019-03-16T05:36:37.391Z,0.57
2019-03-16T05:39:07.320Z,1.20
2019-03-16T05:41:35.741Z,1.60
2019-03-16T05:44:04.193Z,2.73
2019-03-16T05:46:32.602Z,0.80
2019-03-16T05:49:01.003Z,0.80
2019-03-16T05:51:29.435Z,1.20
2019-03-16T05:53:57.823Z,1.10
2019-03-16T05:56:26.224Z,1.77
2019-03-16T05:58:54.621Z,0.83
2019-03-16T06:01:23.081Z,1.83
2019-03-16T06:04:10.839Z,1.10
2019-03-16T06:06:39.240Z,0.80
2019-03-16T06:09:08.106Z,1.43
2019-03-16T06:11:36.531Z,2.60
2019-03-16T06:14:05.000Z,1.70
2019-03-16T06:16:33.422Z,35.90
2019-03-16T06:19:01.807Z,1.90
2019-03-16T06:21:30.234Z,5.50
2019-03-16T06:23:58.628Z,5.83
2019-03-16T06:26:27.043Z,3.23
2019-03-16T06:28:55.435Z,5.47
2019-03-16T06:31:23.851Z,7.60
2019-03-16T06:33:52.231Z,1.60
2019-03-16T06:36:20.643Z,2.23
2019-03-16T06:38:49.031Z,1.87
2019-03-16T06:41:17.514Z,2.27
2019-03-16T06:43:45.993Z,3.63
2019-03-16T06:46:14.454Z,9.50
2019-03-16T06:48:42.857Z,6.23
2019-03-16T06:51:11.285Z,3.30
2019-03-16T06:53:39.675Z,4.57
2019-03-16T06:56:08.094Z,3.33
2019-03-16T06:58:36.497Z,2.87
2019-03-16T07:01:04.903Z,2.77
2019-03-16T07:03:33.314Z,1.10
2019-03-16T07:06:01.721Z,4.60
2019-03-16T07:08:30.139Z,2.43
2019-03-16T07:10:58.535Z,1.90
2019-03-16T07:13:26.948Z,2.80
2019-03-16T07:15:55.372Z,1.97
2019-03-16T07:18:23.752Z,1.33
2019-03-16T07:20:52.184Z,1.70
2019-03-16T07:23:20.656Z,2.63
2019-03-16T07:25:49.055Z,3.03
2019-03-16T07:28:17.455Z,3.17
2019-03-16T07:30:45.841Z,2.30
2019-03-16T07:33:14.255Z,1.97
2019-03-16T07:35:42.633Z,2.30
2019-03-16T07:38:11.047Z,5.30
2019-03-16T07:40:39.440Z,5.27
2019-03-16T07:43:07.832Z,1.90
2019-03-16T07:45:36.242Z,1.67
2019-03-16T07:48:04.697Z,3.00
2019-03-16T07:50:33.107Z,1.43
2019-03-16T07:53:01.520Z,3.03
2019-03-16T07:55:29.924Z,2.00
2019-03-16T07:57:58.323Z,3.10
2019-03-16T08:00:26.812Z,4.20
2019-03-16T08:02:55.223Z,3.40
2019-03-16T08:05:23.622Z,3.43
2019-03-16T08:07:52.022Z,4.10
2019-03-16T08:10:20.435Z,4.90
2019-03-16T08:12:48.827Z,9.57
2019-03-16T08:15:17.244Z,4.93
2019-03-16T08:17:45.641Z,3.10
2019-03-16T08:20:14.192Z,3.33
2019-03-16T08:22:42.578Z,6.00
2019-03-16T08:25:11.124Z,3.97
2019-03-16T08:27:53.039Z,2.37
2019-03-16T08:30:11.206Z,4.23
2019-03-16T08:32:39.591Z,5.00
2019-03-16T08:35:08.948Z,4.73
2019-03-16T08:37:37.343Z,1.70
2019-03-16T08:40:08.854Z,2.10
2019-03-16T08:42:37.243Z,3.33
2019-03-16T08:45:07.987Z,3.03
2019-03-16T08:47:36.455Z,2.73
2019-03-16T08:50:07.017Z,4.33
2019-03-16T08:52:35.429Z,4.93
2019-03-16T08:55:03.992Z,4.33
2019-03-16T08:57:32.361Z,6.30
2019-03-16T09:00:00.784Z,3.63
2019-03-16T09:02:29.181Z,3.83
2019-03-16T09:04:57.580Z,2.60
2019-03-16T09:07:25.989Z,3.63
2019-03-16T09:09:54.396Z,3.17
2019-03-16T09:12:22.795Z,3.20
2019-03-16T09:14:51.211Z,5.20
2019-03-16T09:17:19.608Z,3.37
2019-03-16T09:19:48.016Z,5.53
2019-03-16T09:22:16.413Z,6.50
2019-03-16T09:24:44.825Z,4.27
2019-03-16T09:27:13.210Z,2.47
2019-03-16T09:29:41.596Z,3.80
2019-03-16T09:32:09.998Z,3.87
2019-03-16T09:34:38.381Z,5.30
2019-03-16T09:37:06.808Z,3.43
2019-03-16T09:39:35.211Z,4.03
2019-03-16T09:42:03.619Z,2.10
2019-03-16T09:44:32.006Z,3.10
2019-03-16T09:47:00.423Z,6.47
2019-03-16T09:49:28.825Z,1.93
2019-03-16T09:51:57.249Z,4.13
2019-03-16T09:54:25.650Z,4.17
2019-03-16T09:57:01.228Z,4.10
2019-03-16T09:59:24.196Z,3.23
2019-03-16T10:01:52.590Z,3.20
2019-03-16T10:04:20.999Z,5.60
2019-03-16T10:06:49.407Z,3.90
2019-03-16T10:09:17.799Z,2.40
2019-03-16T10:11:46.197Z,3.30
2019-03-16T10:14:14.876Z,5.33
2019-03-16T10:16:43.283Z,4.70
2019-03-16T10:19:11.670Z,2.90
2019-03-16T10:21:40.076Z,3.93
2019-03-16T10:24:08.474Z,1.97
2019-03-16T10:26:37.615Z,5.00
2019-03-16T10:29:06.169Z,4.50
2019-03-16T10:31:34.576Z,3.50
2019-03-16T10:34:02.975Z,5.90
2019-03-16T10:36:31.461Z,4.10
2019-03-16T10:38:59.857Z,6.33
2019-03-16T10:41:28.269Z,4.50
2019-03-16T10:43:56.674Z,8.50
2019-03-16T10:46:25.063Z,5.20
2019-03-16T10:48:53.473Z,3.77
2019-03-16T10:51:21.892Z,3.40
2019-03-16T10:53:50.277Z,12.80
2019-03-16T10:56:18.699Z,16.03
2019-03-16T10:58:55.938Z,25.43
2019-03-16T11:01:17.271Z,14.67
2019-03-16T11:03:45.667Z,11.40
2019-03-16T11:06:14.088Z,6.63
2019-03-16T11:08:42.478Z,2.57
2019-03-16T11:11:10.896Z,3.17
2019-03-16T11:13:39.295Z,3.93
2019-03-16T11:16:07.712Z,1.43
2019-03-16T11:18:36.097Z,5.70
2019-03-16T11:21:04.575Z,8.60
2019-03-16T11:23:32.973Z,4.53
2019-03-16T11:26:01.384Z,3.03
2019-03-16T11:28:29.783Z,2.60
2019-03-16T11:30:58.170Z,2.17
2019-03-16T11:33:26.585Z,1.90
2019-03-16T11:35:54.994Z,3.07
2019-03-16T11:38:23.402Z,2.50
2019-03-16T11:40:51.786Z,3.90
2019-03-16T11:43:20.194Z,3.30
2019-03-16T11:45:48.673Z,2.60
2019-03-16T11:48:17.069Z,6.20
2019-03-16T11:50:45.471Z,3.43
2019-03-16T11:53:13.880Z,3.10
2019-03-16T11:55:42.271Z,4.33
2019-03-16T11:58:10.701Z,2.23
2019-03-16T12:00:39.101Z,2.37
2019-03-16T12:03:07.507Z,2.60
2019-03-16T12:05:35.909Z,3.97
2019-03-16T12:08:04.306Z,4.10
2019-03-16T12:10:33.181Z,3.50
2019-03-16T12:13:01.599Z,3.80
2019-03-16T12:15:30.029Z,2.30
2019-03-16T12:17:58.447Z,1.53
2019-03-16T12:20:26.844Z,1.87
2019-03-16T12:22:55.280Z,4.33
2019-03-16T12:25:23.678Z,3.70
2019-03-16T12:27:52.100Z,4.20
2019-03-16T12:30:20.491Z,1.77
2019-03-16T12:32:48.910Z,1.87
2019-03-16T12:35:17.307Z,1.50
2019-03-16T12:37:45.711Z,1.57
2019-03-16T12:40:15.047Z,1.70
2019-03-16T12:42:43.447Z,2.70
2019-03-16T12:45:13.956Z,1.17
2019-03-16T12:47:42.359Z,2.43
2019-03-16T12:50:10.906Z,1.60
2019-03-16T12:52:39.397Z,1.53
2019-03-16T12:55:09.931Z,1.73
2019-03-16T12:57:38.338Z,1.53
2019-03-16T13:00:09.940Z,1.03
2019-03-16T13:02:38.366Z,1.60
2019-03-16T13:05:07.390Z,2.07
2019-03-16T13:07:35.815Z,1.73
2019-03-16T13:10:06.886Z,1.33
2019-03-16T13:12:35.312Z,1.03
2019-03-16T13:15:04.747Z,1.77
2019-03-16T13:17:33.173Z,1.67
2019-03-16T13:20:01.563Z,2.07
2019-03-16T13:22:29.961Z,1.23
2019-03-16T13:24:58.365Z,1.60
2019-03-16T13:27:26.767Z,2.10
2019-03-16T13:29:59.200Z,2.00
2019-03-16T13:32:25.308Z,2.30
2019-03-16T13:34:53.788Z,1.07
2019-03-16T13:37:22.183Z,1.60
2019-03-16T13:39:50.604Z,1.13
2019-03-16T13:42:18.999Z,1.27
2019-03-16T13:44:47.416Z,1.00
2019-03-16T13:47:15.883Z,1.87
2019-03-16T13:49:44.302Z,0.70
2019-03-16T13:52:12.698Z,3.20
2019-03-16T13:54:41.292Z,0.83
2019-03-16T13:57:09.688Z,1.20
2019-03-16T13:59:38.096Z,1.83
2019-03-16T14:02:06.491Z,1.00
2019-03-16T14:04:35.266Z,0.87
2019-03-16T14:07:03.657Z,1.00
2019-03-16T14:09:32.068Z,1.40
2019-03-16T14:12:00.744Z,1.00
2019-03-16T14:14:29.160Z,0.80
2019-03-16T14:16:57.543Z,1.00
2019-03-16T14:19:25.968Z,1.33
2019-03-16T14:21:54.353Z,0.80
2019-03-16T14:24:23.130Z,0.90
2019-03-16T14:26:51.897Z,2.13
2019-03-16T14:29:20.311Z,1.10
2019-03-16T14:31:48.721Z,1.07
2019-03-16T14:34:17.132Z,1.10
2019-03-16T14:36:45.517Z,0.67
2019-03-16T14:39:13.941Z,1.10
2019-03-16T14:41:42.347Z,1.70
2019-03-16T14:44:10.761Z,2.57
2019-03-16T14:46:39.150Z,2.43
2019-03-16T14:49:07.545Z,1.97
2019-03-16T14:51:35.939Z,1.53
2019-03-16T14:54:04.420Z,1.33
2019-03-16T14:56:34.455Z,2.27
2019-03-16T14:59:02.895Z,1.97
2019-03-16T15:01:31.288Z,1.07
2019-03-16T15:03:59.685Z,2.20
2019-03-16T15:06:28.079Z,1.27
2019-03-16T15:08:56.496Z,2.50
2019-03-16T15:11:24.905Z,2.07
2019-03-16T15:13:53.364Z,1.43
2019-03-16T15:16:21.768Z,2.00
2019-03-16T15:18:50.179Z,0.73
2019-03-16T15:21:18.576Z,1.63
2019-03-16T15:23:46.983Z,3.40
2019-03-16T15:26:15.363Z,1.03
2019-03-16T15:28:43.771Z,1.50
2019-03-16T15:31:12.168Z,2.20
2019-03-16T15:33:40.576Z,3.87
2019-03-16T15:36:09.058Z,1.70
2019-03-16T15:38:37.454Z,1.63
2019-03-16T15:41:05.860Z,1.17
2019-03-16T15:43:34.241Z,2.30
2019-03-16T15:46:02.672Z,3.70
2019-03-16T15:48:31.119Z,1.10
2019-03-16T15:50:59.561Z,2.10
2019-03-16T15:53:27.953Z,9.23
2019-03-16T15:55:56.447Z,4.73
2019-03-16T15:58:24.841Z,2.60
2019-03-16T16:01:02.917Z,2.43
2019-03-16T16:03:23.359Z,2.73
2019-03-16T16:05:51.782Z,1.43
2019-03-16T16:08:20.180Z,1.57
2019-03-16T16:11:00.361Z,1.90
2019-03-16T16:13:18.704Z,0.90
2019-03-16T16:15:47.134Z,1.03
2019-03-16T16:18:15.516Z,2.10
2019-03-16T16:20:43.927Z,7.27
2019-03-16T16:23:12.357Z,7.93
2019-03-16T16:25:40.759Z,4.67
2019-03-16T16:28:09.164Z,1.23
2019-03-16T16:30:37.561Z,1.30
2019-03-16T16:33:05.950Z,3.00
2019-03-16T16:35:34.369Z,3.83
2019-03-16T16:38:02.772Z,1.67
2019-03-16T16:40:31.184Z,1.60
2019-03-16T16:42:59.583Z,2.40
2019-03-16T16:45:28.125Z,1.77
2019-03-16T16:47:56.514Z,2.20
2019-03-16T16:50:25.970Z,1.40
2019-03-16T16:52:54.425Z,5.07
2019-03-16T16:55:22.912Z,1.10
2019-03-16T16:57:51.306Z,1.27
2019-03-16T17:00:29.523Z,1.90
2019-03-16T17:02:57.997Z,1.47
2019-03-16T17:05:26.389Z,1.97
2019-03-16T17:07:54.787Z,6.80
2019-03-16T17:10:23.198Z,2.30
2019-03-16T17:12:51.586Z,2.53
2019-03-16T17:15:21.421Z,2.80
2019-03-16T17:17:49.813Z,6.70
2019-03-16T17:20:18.252Z,2.10
2019-03-16T17:22:46.650Z,6.30
2019-03-16T17:25:15.842Z,18.53
2019-03-16T17:27:44.241Z,9.47
2019-03-16T17:30:29.615Z,11.00
2019-03-16T17:32:58.007Z,11.83
2019-03-16T17:35:26.658Z,3.80
2019-03-16T17:37:55.059Z,3.47
2019-03-16T17:40:23.482Z,7.33
2019-03-16T17:42:51.879Z,4.67
2019-03-16T17:45:20.308Z,3.73
2019-03-16T17:47:48.686Z,5.00
2019-03-16T17:50:17.270Z,4.70
2019-03-16T17:52:45.789Z,3.30
2019-03-16T17:55:17.296Z,2.93
2019-03-16T17:57:45.924Z,4.80
2019-03-16T18:00:15.588Z,3.07
2019-03-16T18:02:51.378Z,7.03
2019-03-16T18:05:14.151Z,8.53
2019-03-16T18:07:42.565Z,4.57
2019-03-16T18:10:12.931Z,7.20
2019-03-16T18:12:41.331Z,7.10
2019-03-16T18:15:15.137Z,10.33
2019-03-16T18:17:43.553Z,3.93
2019-03-16T18:20:17.567Z,4.23
2019-03-16T18:22:47.239Z,4.00
2019-03-16T18:25:16.051Z,3.50
2019-03-16T18:27:44.445Z,4.60
2019-03-16T18:30:23.910Z,6.20
2019-03-16T18:32:52.292Z,5.23
2019-03-16T18:35:20.701Z,4.10
2019-03-16T18:37:49.073Z,5.90
2019-03-16T18:40:17.491Z,7.83
2019-03-16T18:42:45.887Z,6.43
2019-03-16T18:45:28.863Z,6.00
2019-03-16T18:47:57.233Z,3.57
2019-03-16T18:50:25.635Z,3.60
2019-03-16T18:52:54.026Z,6.00
2019-03-16T18:55:22.428Z,3.10
2019-03-16T18:57:50.812Z,4.47
2019-03-16T19:00:19.285Z,3.90
2019-03-16T19:02:47.778Z,7.10
2019-03-16T19:05:16.182Z,10.30
2019-03-16T19:07:44.597Z,11.33
2019-03-16T19:10:14.332Z,8.30
2019-03-16T19:12:42.995Z,5.17
2019-03-16T19:15:17.903Z,4.00
2019-03-16T19:17:58.012Z,4.40
2019-03-16T19:20:17.161Z,6.50
2019-03-16T19:22:45.628Z,5.50
2019-03-16T19:25:22.118Z,5.00
2019-03-16T19:27:50.493Z,3.77
2019-03-16T19:30:19.131Z,3.30
2019-03-16T19:32:47.535Z,4.03
2019-03-16T19:35:15.944Z,5.83
2019-03-16T19:37:44.388Z,4.50
2019-03-16T19:40:17.120Z,4.47
2019-03-16T19:42:46.966Z,5.53
2019-03-16T19:45:15.841Z,4.50
2019-03-16T19:47:44.224Z,3.47
2019-03-16T19:50:13.982Z,5.43
2019-03-16T19:52:42.431Z,4.77
2019-03-16T19:55:11.906Z,3.90
2019-03-16T19:57:40.315Z,3.53
2019-03-16T20:00:18.186Z,4.40
2019-03-16T20:02:51.054Z,5.67
2019-03-16T20:05:16.794Z,9.10
2019-03-16T20:07:45.186Z,6.30
2019-03-16T20:10:19.511Z,5.17
2019-03-16T20:12:47.988Z,5.53
2019-03-16T20:15:16.630Z,7.00
2019-03-16T20:17:45.024Z,5.87
2019-03-16T20:20:14.588Z,4.00
2019-03-16T20:22:43.030Z,5.17
2019-03-16T20:25:11.582Z,5.53
2019-03-16T20:27:39.977Z,5.90
2019-03-16T20:30:11.099Z,8.90
2019-03-16T20:32:39.497Z,6.87
2019-03-16T20:35:09.039Z,5.90
2019-03-16T20:37:37.418Z,6.53
2019-03-16T20:40:08.924Z,7.03
2019-03-16T20:42:37.325Z,8.13
2019-03-16T20:45:07.398Z,9.43
2019-03-16T20:47:35.841Z,9.03
2019-03-16T20:50:09.906Z,10.00
2019-03-16T20:52:38.316Z,10.97
2019-03-16T20:55:08.063Z,11.70
2019-03-16T20:57:36.480Z,31.23
2019-03-16T21:00:15.481Z,15.80
2019-03-16T21:02:43.901Z,11.50
2019-03-16T21:05:12.373Z,10.60
2019-03-16T21:07:40.776Z,18.20
2019-03-16T21:10:13.655Z,12.90
2019-03-16T21:12:42.067Z,10.53
2019-03-16T21:15:18.953Z,13.80
2019-03-16T21:17:47.362Z,10.27
2019-03-16T21:20:16.688Z,8.77
2019-03-16T21:22:45.090Z,7.87
2019-03-16T21:25:14.699Z,7.87
2019-03-16T21:27:43.174Z,9.53
2019-03-16T21:30:16.333Z,11.23
2019-03-16T21:32:44.750Z,18.47
2019-03-16T21:35:13.152Z,18.03
2019-03-16T21:37:41.559Z,14.63
2019-03-16T21:40:12.363Z,14.43
2019-03-16T21:42:40.787Z,28.17
2019-03-16T21:45:10.920Z,17.90
2019-03-16T21:47:39.327Z,11.23
2019-03-16T21:50:10.174Z,28.50
2019-03-16T21:52:38.590Z,32.23
2019-03-16T21:55:09.887Z,9.03
2019-03-16T21:57:38.392Z,3.87
2019-03-16T22:00:10.191Z,5.63
2019-03-16T22:02:38.578Z,4.30
2019-03-16T22:05:08.624Z,12.00
2019-03-16T22:07:37.108Z,11.40
2019-03-16T22:10:10.842Z,9.33
2019-03-16T22:12:39.277Z,5.40
2019-03-16T22:15:12.746Z,4.30
2019-03-16T22:17:41.267Z,6.87
2019-03-16T22:20:15.548Z,6.23
2019-03-16T22:22:43.942Z,7.37
2019-03-16T22:25:12.612Z,4.30
2019-03-16T22:27:41.011Z,4.70
2019-03-16T22:30:11.920Z,5.10
2019-03-16T22:32:40.323Z,7.70
2019-03-16T22:35:09.293Z,4.70
2019-03-16T22:37:37.833Z,5.40
2019-03-16T22:40:14.367Z,4.33
2019-03-16T22:42:43.150Z,5.63
2019-03-16T22:45:12.866Z,3.50
2019-03-16T22:47:41.286Z,5.47
2019-03-16T22:50:15.534Z,3.20
2019-03-16T22:52:43.929Z,4.40
2019-03-16T22:55:15.484Z,4.30
2019-03-16T22:57:42.665Z,4.37
2019-03-16T23:00:20.131Z,2.60
2019-03-16T23:02:48.525Z,2.70
2019-03-16T23:05:16.984Z,3.93
2019-03-16T23:07:45.397Z,9.43
2019-03-16T23:10:13.856Z,3.57
2019-03-16T23:12:42.317Z,4.50
2019-03-16T23:15:11.451Z,4.70
2019-03-16T23:17:39.856Z,2.97
2019-03-16T23:20:09.182Z,2.27
2019-03-16T23:22:37.591Z,2.50
2019-03-16T23:25:08.322Z,2.67
2019-03-16T23:27:36.737Z,2.33
2019-03-16T23:30:06.962Z,4.20
2019-03-16T23:32:35.372Z,4.90
2019-03-16T23:35:04.086Z,4.50
2019-03-16T23:37:32.492Z,7.37
2019-03-16T23:40:00.890Z,3.63
2019-03-16T23:42:29.363Z,6.33
2019-03-16T23:44:57.747Z,6.50
2019-03-16T23:47:26.155Z,6.20
2019-03-16T23:49:54.539Z,5.73
2019-03-16T23:52:22.945Z,3.70
2019-03-16T23:54:51.330Z,6.27
2019-03-16T23:57:19.715Z,4.37
2019-03-16T23:59:48.123Z,2.73
